Disclaimer   
PNR Super Search
 ♦ 
×
HashTag:
PNR Number:
Train Type:
Train:
From Station:
To Station:
Train Class:
2SSLCCEx3AFC2A1A3E
WL Quota:
DOJ From:
DOJ To:
Blogger:
Traveller:
Predictor:
Prediction:
WLRACConf
Stamper:
Final:
WLRACConfVoidQ-ConfUnStamped
Status:
Reaction:

Search
  Go  
 
Fri Sep 4, 2015 02:59:05 ISTHomeTrainsΣChainsAtlasPNRForumGalleryNewsFAQTripsMembersLoginFeedback
Fri Sep 4, 2015 02:59:05 IST
Post PNRPNR StatusModify Search

Ticket PNR Status Inquiry - PNR: 810-xxxxxxx (E-Ticket)

OLD STATUS

Status Last Updated on: May 21 2012 (7:50PM) IST

Date of Journey: Tue May 22, 2012   Class: Sleeper - SL   (Total Seats available for this Class/Quota: Avbl >183)
Passenger 1: SX1,33/Coach Position:11 (Booking Status: W/L 43,GNWL)
Passenger 2: SX1,36/Coach Position:11 (Booking Status: W/L 44,GNWL)
Passenger 3: SX1,34/Coach Position:11 (Booking Status: W/L 45,GNWL)
Passenger 4: SX1,35/Coach Position:11 (Booking Status: W/L 46,GNWL)
Passenger 5: SX1,37/Coach Position:11 (Booking Status: W/L 47,GNWL)
Passenger 6: SX1,38/Coach Position:11 (Booking Status: W/L 48,GNWL)
Chart PREPARED

Mumbai Bandra Terminus- Dehradun Express/19019

Travel Time: 34h 46m    85 halts    Distance: 1408 km    Avg Speed: 40 km/hr
Peak Observed Speed: n/a
Type: Mail/Express
Zone: WR/Western
Departs @ 04:04 (Avg 8m late)
Platform# 1
SMTWTFS
NVS/Navsari 
Arrives @ 14:50 +1 night (Avg 26m late)
Platform# 1
SMTWTFS
HW/Haridwar Junction 

85 halts. 215 intermediate Stations between Navsari and Haridwar Junction

Show ALL intermediate Stations  Show Old Time-Table

#TrkCodeStation NameX/OArrivesAvgDepartsAvgHaltPFDay#KmSpeedElevZoneAddress
1/==/BDTSBandra Terminus-00:05+011-222.6379mWRMumbai 400050, Maharashtra
2/==/BVIBorivali  00:35+600:40+65m61-203.85019mWRMumbai - 400092, Maharashtra
3/==/BSRVasai RoadXO  01:01+101:03+22m31-186.4747mWRVasai 401202, Maharashtra
4/==/PLGPalgharX  01:35+1601:37+182m11-146.85219mWRPalghar, Maharashtra
5/==/DRDDahanu RoadX  02:15+1002:17+102m11-113.99112mWRDahanu, Maharashtra
6/==/VAPIVapiX  02:49+1302:51+142m11-65.35427mWRVapi, Gujarat
7/==/BLValsadX  03:20+703:25+115m11-39.15715mWRValsad, Gujarat
8/==/BIMBilimora JunctionX  03:44+703:46+72m11-21.27911mWRBilimora, Gujarat
9/==/NVSNavsari»  04:02+704:04+82m110.04914mWRNavsari, Gujarat
10/==/STSuratX04:40+404:45+65m1129.67817mWRSurat 395001, Gujarat
11/==/KSBKosamba Junction  05:09+1005:11+102m--161.011130mWRKosamba, Gujarat
12/==/AKVAnkleshwar JunctionX  05:21+1605:23+162m1179.64320mWRAnkleshwar, Gujarat
13/==/BHBharuch JunctionX  05:36+1405:38+142m3188.98720mWRBharuch, Gujarat
14/==/MYGMiyagam Karjan  06:06+1506:08+152m21129.65629mWRKarjan, Gujarat
15/==/BRCVadodara JunctionXO06:40+1606:50+1610m21159.46736mWRVadodara 390005, Gujarat
16/==/SMLASamlaya Junction  07:14+1907:16+192m21186.06767mWRVadodara, Gujarat
17/==/CPNChampaner Road Junction  07:26+1807:28+182m21197.25489mWRPanchmahal, Gujarat
18/==/DRLDerolX  07:42+1607:44+162m21209.77681mWRKalol, Gujarat
19/==/KRSAKharsaliyaX  07:54+1607:56+152m21222.427107mWRPanchmahal, Gujarat
20/==/GDAGodhra JunctionO  08:20+608:25+95m21233.358122mWRGodhra, Gujarat
21/==/SATSant Road  08:46+1108:47+121m21253.765169mWROrwara, Gujarat
22/==/PPDPiplod Junction  08:58+1308:59+171m21265.568209mWRPiplod, Gujarat
23/==/LMKLimkhedaXO  09:06+1909:08+242m21273.525205mWRLimkheda, Gujarat
24/==/MAMMangal MahudiX  09:29+1409:30+141m21282.197248mWRDabhada, Gujarat
25/==/DHDDahodXO  09:45+2009:50+205m21306.445313mWRDahod, Gujarat
26/==/BIOBordi  10:04+1810:05+181m--1317.068289mWRNational Highway 59, Gujarat
27/==/ANASAnasX  10:12+1810:13+181m--1325.073288mWRMadhya Pradesh 389154 ?, Madhya Pradesh
28/==/MGNMeghnagar  10:25+1910:27+192m--1339.560317mWRJhabua, Madhya Pradesh
29/==/THDRThandla Road  10:35+1910:36+191m--1347.564323mWRJhabua, Madhya Pradesh
30/==/PCNPanch Pipila  10:49+1910:50+201m--1361.452369mWRSH 39A, Madhya Pradesh
31/==/AGRAmargarh  11:01+1811:02+191m--1370.950410mWRSH 39A, Madhya Pradesh
32/==/BMIBamnia  11:07+1911:09+192m--1375.145392mWRBamnia, Madhya Pradesh
33/==/BOGBhairongarh  11:17+1911:18+201m--1381.165374mWRBhairongarh Railway Station, Madhya Pradesh
34/==/RTIRaotiX  11:29+2111:30+211m--1392.953409mWRState Highway 39A, Madhya Pradesh
35/==/BILDBildiX  11:38+2211:39+221m--1400.160422mWRMadhya Pradesh, Madhya Pradesh
36/==/MRNMorwaniX  11:48+2311:49+241m--1409.121459mWRDantoda, Madhya Pradesh
37/==/RTMRatlam JunctionX12:20+2312:40+2620m51419.849495mWRRatlam 457001, Madhya Pradesh
38/==/BODBangrod  12:52+3212:53+321m--1429.755484mWRRatlam, Madhya Pradesh
39/==/RNHRunkhera  13:01+3213:02+321m--1437.057486mWRDistrict Ujjain, Madhya Pradesh
40/==/KUHKhachrodX  13:13+3213:15+332m--1447.514499mWRUjjain, Madhya Pradesh
41/==/NADNagda Junction  14:15-614:25+610m11461.357468mWRNagda, Madhya Pradesh
42/==/MEPMahidpur RoadX  14:43+614:45+82m--1478.480493mWCRGogapur, Madhya Pradesh
43/==/LNRLuni RichhaX  14:53+814:55+82m--1489.061471mWCRAlote, Madhya Pradesh
44/==/VMAVikramgarh Alot  15:08+715:10+92m21502.251443mWCRKota Division, Madhya Pradesh
45/==/THURThuria  15:19+915:21+102m--1509.971432mWCRMDR 45, Madhya Pradesh
46/==/CMUChau MahlaX  15:33+1415:35+162m21524.066426mWCRJhalawar, Rajasthan
47/==/SVASuwasraX  15:49+1615:50+181m--1539.462450mWCRSuwasra, Madhya Pradesh
48/==/SGZShamgarhX  16:03+1916:08+195m--1552.859463mWCRMandsaur, Madhya Pradesh
49/==/GOHGarothX  16:19+1816:20+201m21563.772441mWCRMadhya Pradesh 458880, Madhya Pradesh
50/==/BWMBhawani MandiX  16:39+1816:41+212m--1586.358384mWCRBhawani Mandi, Madhya Pradesh
51/==/JHWJhalawar Road  16:58+1917:00+192m--1602.857361mWCRJhalawar City, Rajasthan
52/==/RMARamganj Mandi JunctionX  17:13+1517:15+182m--1615.242355mWCRRamganj Mandi, Rajasthan
53/==/MKXMorak  17:28+1617:30+172m--1624.268337mWCRMorak, Rajasthan
54/==/DARADaraX  17:43+2017:45+212m--1639.060354mWCRDara, Rajasthan
55/==/DKNTDakaniya TalavO  18:23+2518:25+272m11677.114278mWCRKota, Rajasthan
56/==/KOTAKota JunctionX19:05+319:35+1830m11686.436256mWCRKota, Rajasthan
57|--|GQLGurla  19:44+2319:46+232m--1691.953251mWCRSH 33, Rajasthan
58/==/KPTNKeshorai PatanXO  19:55+2219:57+222m--1699.886243mWCRSH 33, Rajasthan
59/==/LKELakheriX  20:30+3120:32+312m--1746.951223mWCRBundi, Rajasthan
60/==/IDGIndargarh Sumerganj MandiXO  20:45+3220:47+332m--1757.953247mWCRIndargarh, Rajasthan
61/==/SWMSawai Madhopur Junction  21:28+2421:30+262m--1794.179266mWCRSawai Madhopur, Rajasthan
62/==/MLZMalarnaO  21:53+2621:55+262m--1824.345236mWCRSawai Madhopur, Rajasthan
63/==/GGCGangapur City  22:40+1622:45+215m21858.089270mWCRGangapur, Rajasthan
64/==/SMBJShri Mahabirji  23:08+2623:10+262m--1892.147240mWCRKarauli, Rajasthan
65/==/HANHindaun CityO  23:23+2523:25+282m--1902.344230mWCRKarauli, Rajasthan
66/==/BXNBayana JunctionXO  00:10+1600:15+185m--2935.257198mWCRBayana, Rajasthan
67/==/BTEBharatpur JunctionX  00:59+601:00+281m--2977.225174mWCRBharatpur, Rajasthan